createdAt,value
2023-05-05T00:01:17.934Z,94314.00
2023-05-05T00:03:44.906Z,94319.00
2023-05-05T00:06:14.661Z,94313.00
2023-05-05T00:08:42.079Z,94310.00
2023-05-05T00:11:09.363Z,94312.00
2023-05-05T00:13:36.331Z,94308.00
2023-05-05T00:16:03.267Z,94304.00
2023-05-05T00:18:33.812Z,94312.00
2023-05-05T00:21:00.870Z,94306.00
2023-05-05T00:23:30.878Z,94304.00
2023-05-05T00:25:57.812Z,94297.00
2023-05-05T00:28:24.681Z,94304.00
2023-05-05T00:30:51.590Z,94308.00
2023-05-05T00:33:20.776Z,94308.00
2023-05-05T00:35:50.200Z,94306.00
2023-05-05T00:38:17.044Z,94304.00
2023-05-05T00:40:46.976Z,94311.00
2023-05-05T00:43:16.048Z,94297.00
2023-05-05T00:45:47.439Z,94310.00
2023-05-05T00:48:14.649Z,94301.00
2023-05-05T00:50:45.936Z,94298.00
2023-05-05T00:53:13.713Z,94305.00
2023-05-05T00:55:43.148Z,94300.00
2023-05-05T00:58:13.368Z,94304.00
2023-05-05T01:00:40.302Z,94308.00
2023-05-05T01:03:07.489Z,94302.00
2023-05-05T01:06:03.033Z,94310.00
2023-05-05T01:08:39.470Z,94305.00
2023-05-05T01:11:32.268Z,94303.00
2023-05-05T01:14:14.552Z,94297.00
2023-05-05T01:17:08.048Z,94298.00
2023-05-05T01:19:56.056Z,94294.00
2023-05-05T01:22:38.292Z,94294.00
2023-05-05T01:25:26.073Z,94297.00
2023-05-05T01:28:30.688Z,94311.00
2023-05-05T01:31:24.427Z,94302.00
2023-05-05T01:34:00.263Z,94302.00
2023-05-05T01:36:44.009Z,94302.00
2023-05-05T01:39:18.520Z,94308.00
2023-05-05T01:41:53.842Z,94306.00
2023-05-05T01:44:21.696Z,94302.00
2023-05-05T01:46:55.777Z,94306.00
2023-05-05T01:49:23.042Z,94304.00
2023-05-05T01:51:50.571Z,94306.00
2023-05-05T01:54:18.688Z,94308.00
2023-05-05T01:56:46.500Z,94308.00
2023-05-05T01:59:13.740Z,94310.00
2023-05-05T02:01:44.914Z,94306.00
2023-05-05T02:04:14.335Z,94304.00
2023-05-05T02:06:43.861Z,94304.00
2023-05-05T02:09:13.248Z,94313.00
2023-05-05T02:11:43.452Z,94313.00
2023-05-05T02:14:11.479Z,94304.00
2023-05-05T02:16:41.347Z,94304.00
2023-05-05T02:19:10.162Z,94304.00
2023-05-05T02:21:42.603Z,94316.00
2023-05-05T02:24:14.920Z,94313.00
2023-05-05T02:26:46.115Z,94309.00
2023-05-05T02:29:42.541Z,94310.00
2023-05-05T02:32:25.745Z,94315.00
2023-05-05T02:34:54.588Z,94318.00
2023-05-05T02:37:28.725Z,94313.00
2023-05-05T02:40:06.339Z,94318.00
2023-05-05T02:42:38.737Z,94313.00
2023-05-05T02:45:15.542Z,94317.00
2023-05-05T02:47:42.426Z,94317.00
2023-05-05T02:50:10.277Z,94310.00
2023-05-05T02:52:40.458Z,94313.00
2023-05-05T02:55:08.307Z,94313.00
2023-05-05T02:57:58.091Z,94304.00
2023-05-05T03:00:51.842Z,94310.00
2023-05-05T03:03:27.296Z,94300.00
2023-05-05T03:06:15.241Z,94301.00
2023-05-05T03:08:56.808Z,94302.00
2023-05-05T03:11:36.038Z,94302.00
2023-05-05T03:14:12.599Z,94297.00
2023-05-05T03:16:42.564Z,94301.00
2023-05-05T03:19:18.068Z,94300.00
2023-05-05T03:21:49.715Z,94297.00
2023-05-05T03:24:22.457Z,94305.00
2023-05-05T03:26:53.453Z,94305.00
2023-05-05T03:29:20.369Z,94299.00
2023-05-05T03:31:49.416Z,94303.00
2023-05-05T03:34:20.886Z,94307.00
2023-05-05T03:36:47.717Z,94306.00
2023-05-05T03:39:17.107Z,94300.00
2023-05-05T03:41:46.531Z,94303.00
2023-05-05T03:44:13.444Z,94297.00
2023-05-05T03:46:42.851Z,94302.00
2023-05-05T03:49:12.314Z,94298.00
2023-05-05T03:51:41.802Z,94301.00
2023-05-05T03:54:08.696Z,94306.00
2023-05-05T03:56:37.716Z,94309.00
2023-05-05T03:59:07.138Z,94295.00
2023-05-05T04:01:35.302Z,94308.00
2023-05-05T04:04:02.706Z,94305.00
2023-05-05T04:06:29.764Z,94302.00
2023-05-05T04:08:59.182Z,94310.00
2023-05-05T04:11:26.240Z,94306.00
2023-05-05T04:13:53.133Z,94303.00
2023-05-05T04:16:22.932Z,94308.00
2023-05-05T04:18:52.106Z,94310.00
2023-05-05T04:21:18.993Z,94317.00
2023-05-05T04:23:45.907Z,94314.00
2023-05-05T04:26:12.773Z,94316.00
2023-05-05T04:28:44.146Z,94306.00
2023-05-05T04:31:13.450Z,94315.00
2023-05-05T04:33:40.433Z,94316.00
2023-05-05T04:36:07.932Z,94308.00
2023-05-05T04:38:34.843Z,94317.00
2023-05-05T04:41:06.449Z,94313.00
2023-05-05T04:43:33.244Z,94310.00
2023-05-05T04:46:00.177Z,94322.00
2023-05-05T04:48:27.372Z,94334.00
2023-05-05T04:50:56.749Z,94328.00
2023-05-05T04:53:23.596Z,94330.00
2023-05-05T04:55:50.553Z,94328.00
2023-05-05T04:58:17.418Z,94325.00
2023-05-05T05:00:44.215Z,94331.00
2023-05-05T05:03:13.632Z,94330.00
2023-05-05T05:05:40.545Z,94328.00
2023-05-05T05:08:07.434Z,94340.00
2023-05-05T05:10:35.583Z,94331.00
2023-05-05T05:13:02.709Z,94337.00
2023-05-05T05:15:29.640Z,94339.00
2023-05-05T05:18:01.292Z,94339.00
2023-05-05T05:20:31.126Z,94340.00
2023-05-05T05:22:58.016Z,94345.00
2023-05-05T05:25:25.279Z,94343.00
2023-05-05T05:28:05.750Z,94338.00
2023-05-05T05:30:36.213Z,94344.00
2023-05-05T05:33:05.505Z,94341.00
2023-05-05T05:35:32.525Z,94345.00
2023-05-05T05:38:04.340Z,94345.00
2023-05-05T05:40:31.551Z,94350.00
2023-05-05T05:42:58.521Z,94342.00
2023-05-05T05:45:25.530Z,94344.00
2023-05-05T05:47:52.332Z,94347.00
2023-05-05T05:50:19.184Z,94343.00
2023-05-05T05:52:48.364Z,94342.00
2023-05-05T05:55:15.412Z,94348.00
2023-05-05T05:57:44.841Z,94345.00
2023-05-05T06:00:16.969Z,94346.00
2023-05-05T06:02:44.010Z,94343.00
2023-05-05T06:05:18.325Z,94345.00
2023-05-05T06:07:45.377Z,94349.00
2023-05-05T06:10:26.527Z,94351.00
2023-05-05T06:12:54.086Z,94353.00
2023-05-05T06:15:23.260Z,94355.00
2023-05-05T06:17:50.160Z,94358.00
2023-05-05T06:20:17.209Z,94362.00
2023-05-05T06:22:44.032Z,94364.00
2023-05-05T06:25:15.627Z,94360.00
2023-05-05T06:27:44.722Z,94364.00
2023-05-05T06:30:12.177Z,94364.00
2023-05-05T06:32:41.856Z,94355.00
2023-05-05T06:35:09.593Z,94358.00
2023-05-05T06:37:38.892Z,94357.00
2023-05-05T06:40:07.943Z,94361.00
2023-05-05T06:42:35.925Z,94372.00
2023-05-05T06:45:02.935Z,94368.00
2023-05-05T06:47:34.540Z,94376.00
2023-05-05T06:50:06.400Z,94370.00
2023-05-05T06:52:33.662Z,94364.00
2023-05-05T06:55:03.745Z,94363.00
2023-05-05T06:57:30.716Z,94362.00
2023-05-05T07:00:00.379Z,94371.00
2023-05-05T07:02:27.441Z,94370.00
2023-05-05T07:04:55.555Z,94368.00
2023-05-05T07:07:22.750Z,94367.00
2023-05-05T07:09:52.203Z,94378.00
2023-05-05T07:12:21.879Z,94370.00
2023-05-05T07:14:48.855Z,94370.00
2023-05-05T07:17:16.001Z,94365.00
2023-05-05T07:19:43.172Z,94365.00
2023-05-05T07:22:12.264Z,94361.00
2023-05-05T07:24:39.072Z,94356.00
2023-05-05T07:27:07.022Z,94362.00
2023-05-05T07:29:38.993Z,94354.00
2023-05-05T07:32:10.691Z,94356.00
2023-05-05T07:34:40.384Z,94353.00
2023-05-05T07:37:10.003Z,94345.00
2023-05-05T07:39:36.923Z,94345.00
2023-05-05T07:42:03.989Z,94344.00
2023-05-05T07:44:33.268Z,94339.00
2023-05-05T07:47:00.197Z,94333.00
2023-05-05T07:49:31.860Z,94338.00
2023-05-05T07:52:00.997Z,94340.00
2023-05-05T07:54:30.379Z,94343.00
2023-05-05T07:57:02.133Z,94332.00
2023-05-05T07:59:31.589Z,94338.00
2023-05-05T08:02:00.831Z,94335.00
2023-05-05T08:04:27.766Z,94340.00
2023-05-05T08:06:54.764Z,94328.00
2023-05-05T08:09:21.666Z,94331.00
2023-05-05T08:11:48.648Z,94329.00
2023-05-05T08:14:17.942Z,94330.00
2023-05-05T08:16:49.432Z,94328.00
2023-05-05T08:19:28.298Z,94327.00
2023-05-05T08:22:00.592Z,94331.00
2023-05-05T08:24:30.871Z,94322.00
2023-05-05T08:26:57.812Z,94329.00
2023-05-05T08:29:29.393Z,94335.00
2023-05-05T08:31:56.373Z,94334.00
2023-05-05T08:34:23.276Z,94339.00
2023-05-05T08:36:52.613Z,94337.00
2023-05-05T08:39:19.476Z,94332.00
2023-05-05T08:41:48.693Z,94330.00
2023-05-05T08:44:15.720Z,94329.00
2023-05-05T08:46:45.932Z,94326.00
2023-05-05T08:49:16.275Z,94333.00
2023-05-05T08:51:46.737Z,94332.00
2023-05-05T08:54:25.743Z,94323.00
2023-05-05T08:56:56.915Z,94327.00
2023-05-05T08:59:25.200Z,94322.00
2023-05-05T09:01:53.036Z,94315.00
2023-05-05T09:04:20.145Z,94323.00
2023-05-05T09:06:47.060Z,94322.00
2023-05-05T09:09:17.032Z,94330.00
2023-05-05T09:11:47.564Z,94323.00
2023-05-05T09:14:14.454Z,94313.00
2023-05-05T09:16:44.089Z,94316.00
2023-05-05T09:19:10.989Z,94307.00
2023-05-05T09:21:51.618Z,94312.00
2023-05-05T09:24:20.589Z,94310.00
2023-05-05T09:26:48.419Z,94304.00
2023-05-05T09:29:22.194Z,94296.00
2023-05-05T09:32:08.664Z,94298.00
2023-05-05T09:34:37.122Z,94296.00
2023-05-05T09:37:06.519Z,94304.00
2023-05-05T09:39:36.106Z,94295.00
2023-05-05T09:42:08.999Z,94298.00
2023-05-05T09:44:40.741Z,94292.00
2023-05-05T09:47:21.898Z,94283.00
2023-05-05T09:49:59.822Z,94271.00
2023-05-05T09:52:27.950Z,94272.00
2023-05-05T09:54:59.887Z,94270.00
2023-05-05T09:57:31.686Z,94265.00
2023-05-05T10:00:06.280Z,94264.00
2023-05-05T10:02:39.142Z,94264.00
2023-05-05T10:05:18.288Z,94267.00
2023-05-05T10:07:47.400Z,94267.00
2023-05-05T10:10:19.266Z,94261.00
2023-05-05T10:12:49.851Z,94259.00
2023-05-05T10:15:17.215Z,94257.00
2023-05-05T10:20:19.476Z,94250.00
2023-05-05T10:22:54.915Z,94254.00
2023-05-05T10:25:31.527Z,94240.00
2023-05-05T10:28:06.407Z,94238.00
2023-05-05T10:30:45.549Z,94243.00
2023-05-05T10:33:31.522Z,94231.00
2023-05-05T10:36:06.586Z,94226.00
2023-05-05T10:38:37.432Z,94229.00
2023-05-05T10:41:09.478Z,94228.00
2023-05-05T10:43:39.017Z,94221.00
2023-05-05T10:46:07.025Z,94217.00
2023-05-05T10:49:10.559Z,94213.00
2023-05-05T10:52:02.132Z,94208.00
2023-05-05T10:54:39.190Z,94212.00
2023-05-05T10:57:10.040Z,94208.00
2023-05-05T10:59:36.980Z,94207.00
2023-05-05T11:02:28.637Z,94210.00
2023-05-05T11:05:21.557Z,94205.00
2023-05-05T11:07:55.194Z,94198.00
2023-05-05T11:10:24.436Z,94198.00
2023-05-05T11:13:02.929Z,94194.00
2023-05-05T11:15:37.279Z,94180.00
2023-05-05T11:18:08.232Z,94187.00
2023-05-05T11:20:45.261Z,94179.00
2023-05-05T11:23:13.353Z,94176.00
2023-05-05T11:25:45.211Z,94176.00
2023-05-05T11:28:12.877Z,94171.00
2023-05-05T11:30:55.136Z,94161.00
2023-05-05T11:33:29.083Z,94163.00
2023-05-05T11:35:59.218Z,94158.00
2023-05-05T11:39:23.347Z,94150.00
2023-05-05T11:42:21.783Z,94147.00
2023-05-05T11:44:53.993Z,94148.00
2023-05-05T11:47:20.795Z,94144.00
2023-05-05T11:49:51.852Z,94146.00
2023-05-05T11:52:18.818Z,94151.00
2023-05-05T11:54:50.657Z,94145.00
2023-05-05T11:57:21.660Z,94142.00
2023-05-05T12:00:04.425Z,94143.00
2023-05-05T12:02:31.906Z,94145.00
2023-05-05T12:05:00.735Z,94138.00
2023-05-05T12:07:33.284Z,94139.00
2023-05-05T12:10:00.928Z,94136.00
2023-05-05T12:12:42.211Z,94132.00
2023-05-05T12:15:09.723Z,94122.00
2023-05-05T12:17:44.823Z,94124.00
2023-05-05T12:20:13.207Z,94122.00
2023-05-05T12:22:40.848Z,94120.00
2023-05-05T12:25:08.951Z,94117.00
2023-05-05T12:27:38.630Z,94117.00
2023-05-05T12:30:20.448Z,94119.00
2023-05-05T12:32:47.581Z,94116.00
2023-05-05T12:35:14.685Z,94112.00
2023-05-05T12:37:43.443Z,94105.00
2023-05-05T12:40:44.665Z,94106.00
2023-05-05T12:43:34.370Z,94102.00
2023-05-05T12:46:15.248Z,94112.00
2023-05-05T12:48:48.129Z,94111.00
2023-05-05T12:51:23.367Z,94107.00
2023-05-05T12:54:04.789Z,94104.00
2023-05-05T12:56:41.514Z,94103.00
2023-05-05T12:59:10.907Z,94099.00
2023-05-05T13:02:02.606Z,94091.00
2023-05-05T13:04:32.612Z,94090.00
2023-05-05T13:07:14.835Z,94085.00
2023-05-05T13:09:42.260Z,94070.00
2023-05-05T13:12:12.087Z,94070.00
2023-05-05T13:14:42.478Z,94060.00
2023-05-05T13:17:11.059Z,94058.00
2023-05-05T13:19:42.601Z,94059.00
2023-05-05T13:22:10.200Z,94052.00
2023-05-05T13:24:49.814Z,94052.00
2023-05-05T13:27:18.254Z,94051.00
2023-05-05T13:29:47.696Z,94043.00
2023-05-05T13:32:16.059Z,94034.00
2023-05-05T13:34:44.128Z,94036.00
2023-05-05T13:37:13.477Z,94027.00
2023-05-05T13:39:40.382Z,94033.00
2023-05-05T13:42:09.726Z,94022.00
2023-05-05T13:44:36.694Z,94015.00
2023-05-05T13:47:04.117Z,94021.00
2023-05-05T13:49:33.693Z,94020.00
2023-05-05T13:52:05.278Z,94011.00
2023-05-05T13:54:32.304Z,94013.00
2023-05-05T13:57:00.165Z,94003.00
2023-05-05T13:59:29.993Z,94002.00
2023-05-05T14:01:56.903Z,94011.00
2023-05-05T14:04:23.942Z,94018.00
2023-05-05T14:06:50.881Z,93997.00
2023-05-05T14:09:17.799Z,94002.00
2023-05-05T14:11:47.199Z,94003.00
2023-05-05T14:14:14.145Z,94001.00
2023-05-05T14:16:41.091Z,93996.00
2023-05-05T14:19:07.918Z,93989.00
2023-05-05T14:21:34.818Z,93989.00
2023-05-05T14:24:01.685Z,93970.00
2023-05-05T14:26:29.166Z,93968.00
2023-05-05T14:28:58.144Z,93960.00
2023-05-05T14:31:28.559Z,93947.00
2023-05-05T14:33:55.596Z,93947.00
2023-05-05T14:36:23.459Z,93941.00
2023-05-05T14:38:50.569Z,93949.00
2023-05-05T14:41:17.506Z,93958.00
2023-05-05T14:43:46.865Z,93956.00
2023-05-05T14:46:13.905Z,93963.00
2023-05-05T14:48:43.527Z,93968.00
2023-05-05T14:51:10.600Z,93972.00
2023-05-05T14:53:37.536Z,93973.00
2023-05-05T14:56:04.710Z,93970.00
2023-05-05T14:58:33.912Z,93970.00
2023-05-05T15:01:03.133Z,93967.00
2023-05-05T15:03:30.153Z,93972.00
2023-05-05T15:05:57.141Z,93979.00
2023-05-05T15:08:24.451Z,93982.00
2023-05-05T15:10:51.465Z,93993.00
2023-05-05T15:13:18.779Z,93998.00
2023-05-05T15:15:50.589Z,94006.00
2023-05-05T15:18:20.066Z,94005.00
2023-05-05T15:20:46.919Z,94014.00
2023-05-05T15:23:13.788Z,94010.00
2023-05-05T15:25:45.498Z,94007.00
2023-05-05T15:28:12.461Z,94022.00
2023-05-05T15:30:39.749Z,94038.00
2023-05-05T15:33:06.690Z,94041.00
2023-05-05T15:35:33.641Z,94043.00
2023-05-05T15:38:00.604Z,94056.00
2023-05-05T15:40:27.532Z,94059.00
2023-05-05T15:42:57.247Z,94054.00
2023-05-05T15:45:24.410Z,94075.00
2023-05-05T15:47:52.752Z,94150.00
2023-05-05T15:50:20.015Z,94210.00
2023-05-05T15:52:50.137Z,94224.00
2023-05-05T15:55:17.457Z,94225.00
2023-05-05T15:57:44.428Z,94242.00
2023-05-05T16:00:12.118Z,94242.00
2023-05-05T16:02:39.683Z,94253.00
2023-05-05T16:05:09.896Z,94254.00
2023-05-05T16:07:40.156Z,94269.00
2023-05-05T16:10:10.639Z,94250.00
2023-05-05T16:12:40.123Z,94253.00
2023-05-05T16:15:10.518Z,94237.00
2023-05-05T16:17:37.990Z,94251.00
2023-05-05T16:20:05.750Z,94233.00
2023-05-05T16:22:32.703Z,94229.00
2023-05-05T16:24:59.617Z,94233.00
2023-05-05T16:27:27.152Z,94226.00
2023-05-05T16:29:58.463Z,94241.00
2023-05-05T16:32:26.513Z,94237.00
2023-05-05T16:34:56.549Z,94230.00
2023-05-05T16:37:23.455Z,94218.00
2023-05-05T16:39:50.381Z,94210.00
2023-05-05T16:42:20.232Z,94194.00
2023-05-05T16:44:47.133Z,94189.00
2023-05-05T16:47:14.016Z,94181.00
2023-05-05T16:49:41.014Z,94185.00
2023-05-05T16:52:12.505Z,94178.00
2023-05-05T16:54:39.246Z,94177.00
2023-05-05T16:57:08.393Z,94147.00
2023-05-05T16:59:35.960Z,94132.00
2023-05-05T17:02:05.415Z,94122.00
2023-05-05T17:04:32.472Z,94118.00
2023-05-05T17:07:04.206Z,94125.00
2023-05-05T17:09:33.234Z,94129.00
2023-05-05T17:12:04.096Z,94123.00
2023-05-05T17:14:31.500Z,94117.00
2023-05-05T17:17:00.922Z,94108.00
2023-05-05T17:19:27.770Z,94113.00
2023-05-05T17:21:55.173Z,94115.00
2023-05-05T17:24:24.587Z,94109.00
2023-05-05T17:26:53.578Z,94123.00
2023-05-05T17:29:21.596Z,94123.00
2023-05-05T17:31:54.175Z,94125.00
2023-05-05T17:34:25.960Z,94124.00
2023-05-05T17:36:52.867Z,94123.00
2023-05-05T17:39:19.978Z,94120.00
2023-05-05T17:41:46.828Z,94134.00
2023-05-05T17:44:13.787Z,94138.00
2023-05-05T17:46:40.750Z,94141.00
2023-05-05T17:49:09.805Z,94142.00
2023-05-05T17:51:36.724Z,94142.00
2023-05-05T17:54:03.729Z,94142.00
2023-05-05T17:56:30.619Z,94144.00
2023-05-05T17:58:57.542Z,94134.00
2023-05-05T18:01:26.718Z,94141.00
2023-05-05T18:03:54.118Z,94137.00
2023-05-05T18:06:29.301Z,94131.00
2023-05-05T18:09:01.122Z,94133.00
2023-05-05T18:11:31.008Z,94144.00
2023-05-05T18:13:58.114Z,94147.00
2023-05-05T18:16:25.115Z,94147.00
2023-05-05T18:18:52.067Z,94144.00
2023-05-05T18:21:19.013Z,94155.00
2023-05-05T18:23:46.087Z,94154.00
2023-05-05T18:26:15.539Z,94165.00
2023-05-05T18:28:42.433Z,94158.00
2023-05-05T18:31:11.929Z,94167.00
2023-05-05T18:33:41.409Z,94172.00
2023-05-05T18:36:13.150Z,94178.00
2023-05-05T18:38:40.057Z,94178.00
2023-05-05T18:41:07.122Z,94180.00
2023-05-05T18:43:34.026Z,94185.00
2023-05-05T18:46:01.061Z,94190.00
2023-05-05T18:48:30.551Z,94189.00
2023-05-05T18:51:04.611Z,94199.00
2023-05-05T18:53:35.654Z,94197.00
2023-05-05T18:56:05.047Z,94202.00
2023-05-05T18:58:34.911Z,94204.00
2023-05-05T19:01:04.504Z,94213.00
2023-05-05T19:03:31.417Z,94224.00
2023-05-05T19:05:58.300Z,94222.00
2023-05-05T19:08:27.634Z,94228.00
2023-05-05T19:10:54.471Z,94231.00
2023-05-05T19:13:23.577Z,94246.00
2023-05-05T19:15:51.583Z,94247.00
2023-05-05T19:18:18.463Z,94256.00
2023-05-05T19:20:45.347Z,94254.00
2023-05-05T19:23:17.143Z,94254.00
2023-05-05T19:25:44.492Z,94259.00
2023-05-05T19:28:13.626Z,94262.00
2023-05-05T19:30:40.455Z,94267.00
2023-05-05T19:33:07.379Z,94265.00
2023-05-05T19:35:34.496Z,94265.00
2023-05-05T19:38:01.396Z,94266.00
2023-05-05T19:40:28.304Z,94265.00
2023-05-05T19:42:55.164Z,94275.00
2023-05-05T19:45:22.061Z,94272.00
2023-05-05T19:47:49.087Z,94272.00
2023-05-05T19:50:20.572Z,94277.00
2023-05-05T19:52:50.062Z,94282.00
2023-05-05T19:55:18.806Z,94277.00
2023-05-05T19:57:47.893Z,94278.00
2023-05-05T20:00:15.408Z,94280.00
2023-05-05T20:02:45.332Z,94278.00
2023-05-05T20:05:16.403Z,94277.00
2023-05-05T20:07:46.981Z,94280.00
2023-05-05T20:10:14.282Z,94265.00
2023-05-05T20:12:47.649Z,94268.00
2023-05-05T20:15:19.756Z,94269.00
2023-05-05T20:17:48.191Z,94270.00
2023-05-05T20:20:20.955Z,94265.00
2023-05-05T20:22:53.477Z,94283.00
2023-05-05T20:25:20.465Z,94282.00
2023-05-05T20:27:47.350Z,94284.00
2023-05-05T20:30:16.733Z,94281.00
2023-05-05T20:32:43.662Z,94273.00
2023-05-05T20:35:12.730Z,94287.00
2023-05-05T20:37:39.747Z,94282.00
2023-05-05T20:40:08.222Z,94278.00
2023-05-05T20:42:35.442Z,94279.00
2023-05-05T20:45:02.503Z,94280.00
2023-05-05T20:47:29.546Z,94282.00
2023-05-05T20:49:56.509Z,94286.00
2023-05-05T20:52:23.336Z,94279.00
2023-05-05T20:54:50.159Z,94283.00
2023-05-05T20:57:17.015Z,94277.00
2023-05-05T20:59:43.936Z,94275.00
2023-05-05T21:02:10.975Z,94282.00
2023-05-05T21:04:42.463Z,94279.00
2023-05-05T21:07:11.620Z,94274.00
2023-05-05T21:09:38.434Z,94279.00
2023-05-05T21:12:06.180Z,94277.00
2023-05-05T21:14:37.825Z,94278.00
2023-05-05T21:17:04.842Z,94273.00
2023-05-05T21:19:33.904Z,94275.00
2023-05-05T21:22:03.352Z,94279.00
2023-05-05T21:24:30.585Z,94273.00
2023-05-05T21:26:57.576Z,94294.00
2023-05-05T21:29:24.698Z,94290.00
2023-05-05T21:31:51.551Z,94289.00
2023-05-05T21:34:18.675Z,94284.00
2023-05-05T21:36:45.716Z,94286.00
2023-05-05T21:39:12.552Z,94285.00
2023-05-05T21:41:39.419Z,94287.00
2023-05-05T21:44:08.474Z,94289.00
2023-05-05T21:46:35.534Z,94289.00
2023-05-05T21:49:15.715Z,94281.00
2023-05-05T21:51:44.215Z,94282.00
2023-05-05T21:54:11.221Z,94272.00
2023-05-05T21:56:38.409Z,94270.00
2023-05-05T21:59:06.139Z,94267.00
2023-05-05T22:01:33.410Z,94258.00
2023-05-05T22:04:05.223Z,94265.00
2023-05-05T22:06:32.536Z,94273.00
2023-05-05T22:08:59.375Z,94253.00
2023-05-05T22:11:26.385Z,94257.00
2023-05-05T22:13:56.351Z,94266.00
2023-05-05T22:16:27.906Z,94261.00
2023-05-05T22:18:54.923Z,94265.00
2023-05-05T22:21:23.987Z,94257.00
2023-05-05T22:23:50.864Z,94256.00
2023-05-05T22:26:20.678Z,94240.00
2023-05-05T22:28:52.829Z,94249.00
2023-05-05T22:31:19.716Z,94234.00
2023-05-05T22:33:46.627Z,94232.00
2023-05-05T22:36:14.233Z,94237.00
2023-05-05T22:38:43.180Z,94235.00
2023-05-05T22:41:10.031Z,94185.00
2023-05-05T22:43:39.553Z,94234.00
2023-05-05T22:46:06.447Z,94228.00
2023-05-05T22:48:33.302Z,94227.00
2023-05-05T22:51:00.146Z,94231.00
2023-05-05T22:53:27.064Z,94231.00
2023-05-05T22:55:54.089Z,94218.00
2023-05-05T22:58:23.799Z,94220.00
2023-05-05T23:00:50.703Z,94223.00
2023-05-05T23:03:19.760Z,94227.00
2023-05-05T23:05:49.072Z,94222.00
2023-05-05T23:08:20.958Z,94224.00
2023-05-05T23:10:50.333Z,94231.00
2023-05-05T23:13:17.256Z,94223.00
2023-05-05T23:15:44.289Z,94227.00
2023-05-05T23:18:11.225Z,94220.00
2023-05-05T23:20:38.120Z,94228.00
2023-05-05T23:23:07.326Z,94220.00
2023-05-05T23:25:34.270Z,94220.00
2023-05-05T23:28:01.398Z,94222.00
2023-05-05T23:30:28.391Z,94221.00
2023-05-05T23:32:57.114Z,94219.00
2023-05-05T23:35:27.317Z,94214.00
2023-05-05T23:37:54.220Z,94220.00
2023-05-05T23:40:23.783Z,94226.00
2023-05-05T23:42:52.735Z,94224.00
2023-05-05T23:45:19.733Z,94226.00
2023-05-05T23:47:46.584Z,94227.00
2023-05-05T23:50:13.459Z,94232.00
2023-05-05T23:52:41.761Z,94227.00
2023-05-05T23:55:10.254Z,94222.00
2023-05-05T23:57:37.693Z,94224.00
